TimeCDT,TemperatureF,Dew PointF,Humidity,Sea Level PressureIn,VisibilityMPH,Wind Direction,Wind SpeedMPH,Gust SpeedMPH,PrecipitationIn,Events,Conditions,WindDirDegrees,DateUTC
12:15 AM,50.9,46.6,85,30.06,10.0,Calm,Calm,-,N/A,,Clear,0,2013-05-07 05:15:00
12:35 AM,51.8,46.2,81,30.06,10.0,Calm,Calm,-,N/A,,Clear,0,2013-05-07 05:35:00
12:55 AM,50.5,45.7,83,30.06,10.0,Calm,Calm,-,N/A,,Clear,0,2013-05-07 05:55:00
1:15 AM,50.2,45.7,85,30.06,10.0,Calm,Calm,-,N/A,,Clear,0,2013-05-07 06:15:00
1:35 AM,50.4,45.7,84,30.06,10.0,Calm,Calm,-,N/A,,Clear,0,2013-05-07 06:35:00
1:55 AM,50.2,46.2,86,30.06,7.0,East,3.5,-,N/A,,Scattered Clouds,100,2013-05-07 06:55:00
2:15 AM,50.9,46.0,83,30.06,7.0,Calm,Calm,-,N/A,,Clear,0,2013-05-07 07:15:00
2:35 AM,50.7,46.4,85,30.06,7.0,SE,4.6,-,N/A,,Clear,140,2013-05-07 07:35:00
2:55 AM,50.9,46.2,84,30.05,7.0,Calm,Calm,-,N/A,,Clear,0,2013-05-07 07:55:00
3:15 AM,50.0,45.9,86,30.05,7.0,Calm,Calm,-,N/A,,Clear,0,2013-05-07 08:15:00
3:35 AM,49.3,45.1,86,30.06,7.0,Calm,Calm,-,N/A,,Clear,0,2013-05-07 08:35:00
3:55 AM,49.8,46.0,87,30.06,7.0,South,4.6,-,N/A,,Mostly Cloudy,170,2013-05-07 08:55:00
4:15 AM,50.5,45.9,84,30.06,10.0,Calm,Calm,-,N/A,,Scattered Clouds,0,2013-05-07 09:15:00
4:35 AM,49.3,45.5,87,30.06,7.0,South,4.6,-,N/A,,Clear,170,2013-05-07 09:35:00
4:55 AM,50.0,45.9,86,30.05,10.0,South,5.8,-,N/A,,Scattered Clouds,180,2013-05-07 09:55:00
5:15 AM,50.0,45.9,86,30.05,7.0,South,4.6,-,N/A,,Scattered Clouds,170,2013-05-07 10:15:00
5:35 AM,50.4,46.4,86,30.06,7.0,Calm,Calm,-,N/A,,Scattered Clouds,0,2013-05-07 10:35:00
5:55 AM,51.3,47.5,87,30.06,7.0,Calm,Calm,-,N/A,,Overcast,0,2013-05-07 10:55:00
6:15 AM,50.5,46.8,87,30.06,7.0,Calm,Calm,-,N/A,,Overcast,0,2013-05-07 11:15:00
6:35 AM,50.9,47.3,87,30.06,5.0,Calm,Calm,-,N/A,,Overcast,0,2013-05-07 11:35:00
6:55 AM,50.5,47.5,89,30.06,4.0,Calm,Calm,-,N/A,,Overcast,0,2013-05-07 11:55:00
7:15 AM,52.0,48.2,87,30.07,5.0,Calm,Calm,-,N/A,,Mostly Cloudy,0,2013-05-07 12:15:00
7:35 AM,52.5,48.6,86,30.07,4.0,Calm,Calm,-,N/A,,Mostly Cloudy,0,2013-05-07 12:35:00
7:55 AM,53.4,49.5,86,30.07,4.0,Calm,Calm,-,N/A,,Clear,0,2013-05-07 12:55:00
8:15 AM,55.8,51.4,85,30.07,5.0,Calm,Calm,-,N/A,,Haze,0,2013-05-07 13:15:00
8:35 AM,58.3,52.2,80,30.07,5.0,Calm,Calm,-,N/A,,Haze,0,2013-05-07 13:35:00
8:55 AM,61.0,52.5,74,30.07,7.0,South,4.6,-,N/A,,Clear,190,2013-05-07 13:55:00
9:15 AM,63.1,51.4,66,30.06,7.0,SW,3.5,-,N/A,,Clear,230,2013-05-07 14:15:00
9:35 AM,64.0,50.7,62,30.06,10.0,South,3.5,-,N/A,,Clear,180,2013-05-07 14:35:00
9:55 AM,65.5,50.7,59,30.05,10.0,Calm,Calm,-,N/A,,Clear,0,2013-05-07 14:55:00
10:15 AM,66.7,50.4,56,30.05,10.0,South,3.5,-,N/A,,Clear,190,2013-05-07 15:15:00
10:35 AM,67.6,50.5,54,30.05,10.0,WSW,3.5,-,N/A,,Clear,240,2013-05-07 15:35:00
10:55 AM,68.4,50.2,52,30.05,10.0,SSW,5.8,-,N/A,,Scattered Clouds,210,2013-05-07 15:55:00
11:15 AM,68.5,51.3,54,30.05,10.0,SSW,5.8,-,N/A,,Mostly Cloudy,210,2013-05-07 16:15:00
11:35 AM,69.8,51.1,51,30.05,10.0,SSW,5.8,-,N/A,,Mostly Cloudy,200,2013-05-07 16:35:00
11:55 AM,69.8,51.1,51,30.05,10.0,South,8.1,-,N/A,,Overcast,170,2013-05-07 16:55:00
12:15 PM,70.7,51.3,50,30.04,10.0,SSE,8.1,-,N/A,,Mostly Cloudy,150,2013-05-07 17:15:00
12:35 PM,72.0,51.1,48,30.04,10.0,SW,9.2,-,N/A,,Scattered Clouds,230,2013-05-07 17:35:00
12:55 PM,71.4,51.1,49,30.03,10.0,South,8.1,-,N/A,,Scattered Clouds,190,2013-05-07 17:55:00
1:15 PM,72.5,51.1,47,30.03,10.0,SW,8.1,-,N/A,,Scattered Clouds,220,2013-05-07 18:15:00
1:35 PM,71.1,51.4,50,30.03,10.0,South,10.4,-,N/A,,Scattered Clouds,180,2013-05-07 18:35:00
1:55 PM,71.2,51.3,49,30.02,10.0,South,9.2,-,N/A,,Mostly Cloudy,180,2013-05-07 18:55:00
2:15 PM,72.5,51.4,47,30.01,10.0,South,8.1,-,N/A,,Overcast,170,2013-05-07 19:15:00
2:35 PM,72.9,51.6,47,30.01,10.0,SSE,8.1,-,N/A,,Mostly Cloudy,160,2013-05-07 19:35:00
2:55 PM,72.0,50.7,47,30.00,10.0,SSE,6.9,-,N/A,,Mostly Cloudy,160,2013-05-07 19:55:00
3:15 PM,71.8,51.6,49,29.99,10.0,SSE,6.9,-,N/A,,Overcast,160,2013-05-07 20:15:00
3:35 PM,72.5,50.2,45,29.99,10.0,South,5.8,17.3,N/A,,Scattered Clouds,190,2013-05-07 20:35:00
3:55 PM,71.2,51.4,50,29.98,10.0,South,9.2,-,N/A,,Mostly Cloudy,170,2013-05-07 20:55:00
4:15 PM,70.7,50.9,49,29.97,10.0,South,6.9,-,N/A,,Overcast,170,2013-05-07 21:15:00
4:35 PM,65.7,55.0,69,29.97,10.0,West,5.8,-,N/A,,Drizzle,260,2013-05-07 21:35:00
4:55 PM,65.5,56.1,72,29.97,10.0,West,3.5,-,N/A,,Light Drizzle,270,2013-05-07 21:55:00
5:15 PM,63.9,56.7,77,29.96,10.0,WNW,3.5,-,N/A,Rain,Rain,300,2013-05-07 22:15:00
5:35 PM,63.7,56.5,77,29.96,10.0,Calm,Calm,-,0.01,,Overcast,0,2013-05-07 22:35:00
5:55 PM,64.4,57.0,77,29.96,10.0,Calm,Calm,-,0.01,,Overcast,0,2013-05-07 22:55:00
6:15 PM,64.8,57.4,77,29.95,10.0,Calm,Calm,-,N/A,,Overcast,0,2013-05-07 23:15:00
6:35 PM,65.3,57.9,77,29.94,10.0,Calm,Calm,-,N/A,,Overcast,0,2013-05-07 23:35:00
6:55 PM,65.5,57.7,76,29.94,10.0,NE,3.5,-,N/A,,Scattered Clouds,50,2013-05-07 23:55:00
7:15 PM,65.3,57.9,77,29.93,10.0,Calm,Calm,-,N/A,,Scattered Clouds,0,2013-05-08 00:15:00
7:35 PM,65.3,58.1,77,29.94,10.0,NE,4.6,-,N/A,,Mostly Cloudy,50,2013-05-08 00:35:00
7:55 PM,64.6,57.6,78,29.93,10.0,East,4.6,-,N/A,Thunderstorm,Scattered Clouds,100,2013-05-08 00:55:00
8:15 PM,63.5,57.2,80,29.94,10.0,East,5.8,-,N/A,,Clear,90,2013-05-08 01:15:00
8:35 PM,62.2,56.5,81,29.94,10.0,ESE,3.5,-,N/A,,Scattered Clouds,110,2013-05-08 01:35:00
8:55 PM,60.8,55.9,84,29.93,10.0,ESE,4.6,-,N/A,Thunderstorm,Scattered Clouds,120,2013-05-08 01:55:00
9:15 PM,62.2,56.7,82,29.93,10.0,ESE,4.6,-,N/A,,Mostly Cloudy,120,2013-05-08 02:15:00
9:35 PM,61.5,56.5,83,29.94,10.0,SE,5.8,-,N/A,,Overcast,130,2013-05-08 02:35:00
9:55 PM,60.6,55.9,85,29.94,10.0,SE,5.8,-,N/A,,Overcast,140,2013-05-08 02:55:00
10:15 PM,61.0,54.9,80,29.93,10.0,SE,5.8,-,N/A,,Overcast,140,2013-05-08 03:15:00
10:35 PM,61.3,54.7,79,29.94,10.0,SSE,3.5,-,N/A,,Overcast,150,2013-05-08 03:35:00
10:55 PM,61.7,54.7,78,29.95,10.0,SSE,3.5,-,N/A,,Overcast,150,2013-05-08 03:55:00
11:15 PM,62.1,54.9,77,29.96,10.0,West,5.8,-,N/A,,Overcast,260,2013-05-08 04:15:00
11:35 PM,61.7,55.8,81,29.97,5.0,SSW,13.8,18.4,0.05,Rain,Heavy Rain,200,2013-05-08 04:35:00
11:55 PM,60.6,55.9,85,29.96,7.0,SSW,13.8,19.6,0.10,Rain,Heavy Rain,200,2013-05-08 04:55:00